HDGA4: War Eagle Creek At Hindsville, AR

                                SHEF ID:       HDGA4     War Eagle Crk nr Hindsville,AR
STATION TYPE:

STAGE RIV-FLOW WTR-TEMP CONDUCT BAT-LOAD
ft cfs F umho/cm volt
Ccp-Rev Ccp-Rev Ccp-Rev Ccp-Rev Ccp-Rev
(America/Chicago)
11/22 00:00 2.04 306 59.52 ---- 11.11
11/22 01:00 2.10 322 59.54 ---- 11.09
11/22 02:00 2.13 329 59.43 ---- 11.09
11/22 03:00 2.14 332 59.31 ---- 11.09
11/22 04:00 2.14 332 59.23 ---- 11.08
11/22 05:00 2.13 329 59.22 ---- 11.08
11/22 06:00 2.13 329 59.25 ---- 11.08
11/22 07:00 2.11 324 59.29 ---- 11.08
11/22 08:00 2.09 319 59.32 ---- 11.07
11/22 09:00 2.07 314 59.31 ---- 11.08
11/22 10:00 2.06 311 59.34 ---- 11.12
11/22 11:00 2.03 303 59.34 ---- 11.16
11/22 12:00 2.01 298 59.32 ---- 11.16
11/22 13:00 1.99 293 59.38 ---- 11.19
11/22 14:00 1.97 288 59.34 ---- 11.19
11/22 15:00 1.95 283 59.36 ---- 11.21
11/22 16:00 1.93 278 59.31 ---- 11.17
11/22 17:00 1.91 274 59.22 ---- 11.09
11/22 18:00 1.89 269 59.09 ---- 11.08
11/22 19:00 1.87 264 58.98 ---- 11.08
11/22 20:00 1.85 259 58.86 ---- 11.07
11/22 21:00 1.84 257 58.73 ---- 11.07
11/22 22:00 1.82 252 58.62 ---- 11.06
11/22 23:00 1.80 247 58.46 ---- 11.06
Data processed at Sun 23Nov2025 05:13 GMT

NOTICE: If you are parsing this page

Please convert to using our Data API. Starting January 1st, 2026 we will be migrating to: https://water.usace.army.mil with modern pages rendered in JavaScript. You will no longer be able to scrape this page! CWMSDataAPI (CDA)

Timeseries IDs (TSIDs)

TSIDs used from left to right in the data table
HIND.Stage.Inst.1Hour.0.Ccp-Rev
HIND.Flow.Inst.1Hour.0.Ccp-Rev
HIND.Temp-Water.Inst.1Hour.0.Ccp-Rev
HIND.Cond.Inst.1Hour.0.Ccp-Rev
HIND.Volt-Battery Load.Inst.1Hour.0.Ccp-Rev

                            

All information presented herein is the property of the government of the United States of America and may be revised or deleted at any time without prior notice. Dissemination of this information without the expressed written consent of the Public Affairs Office, Tulsa District U.S. Army Corps of Engineers is strictly prohibited. These data are gathered electronically and, as presented, have NOT undergone any form of quality control. These data are NOT guaranteed to be valid or correct.